Time;durP1;ratioP1;P1;durP2;ratioP2;P2;SDS_P1;SDS_P2;PMS_P1;PMS_P2;Temp;Humidity;BMP_temperature;BMP_pressure;BME280_temperature;BME280_humidity;BME280_pressure;Samples;Min_cycle;Max_cycle;Signal;HPM_P1;HPM_P2
2024/01/04 00:00:54;;;;;;;3.30;3.00;;;23.10;72.30;;;;;;6205313;28;84040;-93
2024/01/04 00:10:28;;;;;;;12.18;9.50;;;23.10;72.30;;;;;;6200888;28;84264;-93
2024/01/04 00:24:19;;;;;;;210.73;165.15;;;23.10;71.60;;;;;;6197881;28;84599;-93
2024/01/04 00:27:21;;;;;;;279.65;238.10;;;23.10;71.60;;;;;;6188648;28;85162;-93
2024/01/04 00:30:23;;;;;;;328.83;277.75;;;23.00;71.60;;;;;;6190077;28;85050;-94
2024/01/04 00:33:28;;;;;;;346.55;298.77;;;23.10;71.80;;;;;;6195298;28;85211;-93
2024/01/04 00:39:47;;;;;;;305.63;259.67;;;23.10;71.80;;;;;;6200767;28;85112;-92
2024/01/04 00:42:49;;;;;;;284.40;240.27;;;23.10;71.70;;;;;;6201086;28;85012;-92
2024/01/04 00:49:07;;;;;;;367.67;308.60;;;23.10;71.80;;;;;;6200588;28;85099;-92
2024/01/04 01:09:01;;;;;;;727.10;647.55;;;23.10;72.00;;;;;;6200319;28;85119;-92
2024/01/04 01:12:03;;;;;;;732.63;652.28;;;23.10;72.00;;;;;;6206400;28;85222;-93
2024/01/04 01:15:09;;;;;;;683.72;609.17;;;23.10;72.10;;;;;;6205276;28;85640;-93
2024/01/04 01:18:11;;;;;;;670.38;597.67;;;23.10;72.10;;;;;;6202114;28;85519;-92
2024/01/04 01:21:13;;;;;;;642.92;572.63;;;23.00;72.10;;;;;;6200089;28;85158;-93
2024/01/04 01:24:15;;;;;;;669.20;596.97;;;23.10;72.20;;;;;;6190167;28;85534;-92
2024/01/04 01:27:17;;;;;;;641.17;571.72;;;23.10;72.20;;;;;;6186771;28;85164;-92
2024/01/04 01:30:21;;;;;;;626.60;558.63;;;23.00;72.20;;;;;;6191795;28;85163;-92
2024/01/04 01:33:24;;;;;;;566.13;504.38;;;23.10;72.40;;;;;;6199397;28;85866;-92
2024/01/04 01:36:27;;;;;;;632.55;563.65;;;23.00;72.20;;;;;;6205462;28;85086;-93
2024/01/04 01:39:29;;;;;;;658.30;585.70;;;23.00;71.30;;;;;;6204740;28;85028;-92
2024/01/04 01:42:31;;;;;;;646.13;574.70;;;23.00;70.30;;;;;;6188213;28;85195;-93
2024/01/04 01:45:35;;;;;;;635.20;563.85;;;23.00;69.70;;;;;;6188157;28;85136;-93
2024/01/04 01:48:37;;;;;;;614.20;545.65;;;23.00;69.50;;;;;;6187719;28;85132;-93
2024/01/04 01:51:40;;;;;;;547.85;482.60;;;23.00;68.90;;;;;;6186634;28;85198;-92
2024/01/04 01:54:42;;;;;;;534.20;463.23;;;23.00;69.60;;;;;;6183878;28;85132;-92
2024/01/04 01:57:44;;;;;;;530.75;461.52;;;22.90;68.40;;;;;;6187476;28;85221;-93
2024/01/04 02:00:48;;;;;;;510.23;440.65;;;22.90;68.60;;;;;;6187378;28;85206;-93
2024/01/04 02:03:51;;;;;;;495.13;422.10;;;22.90;68.80;;;;;;6187347;28;85072;-92
2024/01/04 02:06:53;;;;;;;469.10;395.55;;;22.80;68.80;;;;;;6187050;28;85073;-93
2024/01/04 02:09:55;;;;;;;442.58;369.60;;;22.80;68.80;;;;;;6187281;28;85515;-93
2024/01/04 02:12:57;;;;;;;413.70;346.45;;;22.90;69.00;;;;;;6187851;28;85092;-92
2024/01/04 02:16:01;;;;;;;380.52;322.08;;;22.90;69.10;;;;;;6187299;28;85057;-93
2024/01/04 02:19:25;;;;;;;352.35;298.98;;;22.80;69.10;;;;;;6185636;28;85743;-93
2024/01/04 03:33:49;;;;;;;208.02;163.73;;;22.70;71.80;;;;;;6261681;28;85500;-93
2024/01/04 03:36:51;;;;;;;205.13;162.35;;;22.60;70.80;;;;;;6241924;28;85219;-94
2024/01/04 03:39:53;;;;;;;203.57;160.98;;;22.60;70.80;;;;;;6235230;28;85415;-93
2024/01/04 03:42:56;;;;;;;191.52;151.93;;;22.60;71.00;;;;;;6234370;28;85854;-93
2024/01/04 03:45:58;;;;;;;187.45;149.30;;;22.60;71.00;;;;;;6231687;28;85002;-93
2024/01/04 03:49:01;;;;;;;180.40;145.50;;;22.60;70.80;;;;;;6235341;28;85047;-94
2024/01/04 03:52:03;;;;;;;181.80;143.48;;;22.60;70.90;;;;;;6235926;28;85189;-93
2024/01/04 03:55:06;;;;;;;177.88;142.82;;;22.60;70.90;;;;;;6239759;28;85108;-94
2024/01/04 03:58:08;;;;;;;172.23;139.40;;;22.60;70.90;;;;;;6239543;28;85162;-94
2024/01/04 04:01:10;;;;;;;161.07;129.48;;;22.60;70.90;;;;;;6239143;28;85455;-93
2024/01/04 04:04:14;;;;;;;161.20;129.15;;;22.50;70.60;;;;;;6239184;28;84979;-94
2024/01/04 04:07:16;;;;;;;155.77;124.15;;;22.50;70.60;;;;;;6239812;28;85141;-93
2024/01/04 04:10:18;;;;;;;149.85;121.28;;;22.50;70.60;;;;;;6239424;28;85230;-93
2024/01/04 04:13:22;;;;;;;150.48;119.63;;;22.50;70.60;;;;;;6238855;28;85371;-92
2024/01/04 04:16:27;;;;;;;140.52;115.20;;;22.50;70.70;;;;;;6238017;28;85144;-93
2024/01/04 04:19:31;;;;;;;146.38;115.80;;;22.50;70.60;;;;;;6239247;28;85148;-93
2024/01/04 04:22:34;;;;;;;138.73;111.63;;;22.50;70.60;;;;;;6239219;28;85179;-93
2024/01/04 04:25:37;;;;;;;137.77;110.00;;;22.50;70.60;;;;;;6219170;28;85671;-94
2024/01/04 04:28:40;;;;;;;137.05;110.78;;;22.50;70.60;;;;;;6238664;28;85184;-94
2024/01/04 04:31:45;;;;;;;132.80;108.97;;;22.60;70.60;;;;;;6238720;28;85149;-94
2024/01/04 04:34:48;;;;;;;130.98;105.68;;;22.60;70.60;;;;;;6239721;28;85217;-93
2024/01/04 04:37:50;;;;;;;124.10;100.75;;;22.50;70.50;;;;;;6263685;28;85243;-93
2024/01/04 04:40:55;;;;;;;123.70;101.88;;;22.50;70.50;;;;;;6263866;28;85185;-93
2024/01/04 04:43:57;;;;;;;119.57;98.68;;;22.50;70.50;;;;;;6263310;28;85280;-93
2024/01/04 04:46:59;;;;;;;118.10;96.00;;;22.50;70.50;;;;;;6265104;28;84116;-94
2024/01/04 04:50:03;;;;;;;110.50;92.47;;;22.50;70.60;;;;;;6264872;28;84140;-94
2024/01/04 04:53:05;;;;;;;111.38;90.63;;;22.50;70.50;;;;;;6265062;28;82893;-94
2024/01/04 04:56:09;;;;;;;110.40;89.88;;;22.50;70.50;;;;;;6264946;28;83407;-93
2024/01/04 04:59:13;;;;;;;102.85;85.05;;;22.50;70.50;;;;;;6264710;28;83250;-93
2024/01/04 05:02:15;;;;;;;101.70;84.15;;;22.50;70.50;;;;;;6264667;28;84050;-94
2024/01/04 05:05:18;;;;;;;100.00;81.68;;;22.50;70.50;;;;;;6261258;27;82695;-94
2024/01/04 05:08:21;;;;;;;96.22;80.15;;;22.50;70.50;;;;;;6264518;28;84385;-94
2024/01/04 05:11:24;;;;;;;96.30;78.05;;;22.50;70.50;;;;;;6264609;28;84117;-94
2024/01/04 05:14:27;;;;;;;90.07;74.80;;;22.50;70.50;;;;;;6264783;28;83060;-94
2024/01/04 05:17:29;;;;;;;90.32;74.20;;;22.50;70.50;;;;;;6264785;28;84345;-94
2024/01/04 05:20:32;;;;;;;88.03;72.05;;;22.50;70.60;;;;;;6264712;28;83905;-94
2024/01/04 05:23:35;;;;;;;85.25;71.00;;;22.50;70.70;;;;;;6264293;28;83989;-94
2024/01/04 05:26:36;;;;;;;82.53;68.20;;;22.50;70.80;;;;;;6264420;28;83970;-93
2024/01/04 05:29:40;;;;;;;82.55;67.22;;;22.50;70.80;;;;;;6264333;28;83987;-94
2024/01/04 05:32:42;;;;;;;78.35;64.75;;;22.50;70.80;;;;;;6263898;28;84403;-94
2024/01/04 05:35:46;;;;;;;77.03;62.85;;;22.60;70.80;;;;;;6263809;28;83576;-94
2024/01/04 05:38:49;;;;;;;73.85;60.78;;;22.60;70.80;;;;;;6264225;28;83914;-93
2024/01/04 05:41:51;;;;;;;72.10;60.22;;;22.60;70.50;;;;;;6263615;28;83957;-94
2024/01/04 05:44:53;;;;;;;68.28;56.90;;;22.50;70.50;;;;;;6259560;28;84235;-93
2024/01/04 05:47:55;;;;;;;69.35;56.60;;;22.50;70.50;;;;;;6263723;28;83995;-93
2024/01/04 05:50:58;;;;;;;67.57;55.40;;;22.60;70.50;;;;;;6263836;28;84025;-93
2024/01/04 05:54:02;;;;;;;62.92;53.22;;;22.60;70.50;;;;;;6264112;28;84014;-93
2024/01/04 05:57:06;;;;;;;63.35;52.95;;;22.60;70.50;;;;;;6263934;28;84497;-93
2024/01/04 06:00:10;;;;;;;61.72;51.55;;;22.60;70.50;;;;;;6263566;28;84456;-93
2024/01/04 06:03:13;;;;;;;59.10;49.35;;;22.60;70.50;;;;;;6259570;28;82937;-93
2024/01/04 06:06:19;;;;;;;58.63;49.58;;;22.60;70.50;;;;;;6263542;28;82696;-93
2024/01/04 06:09:21;;;;;;;57.38;48.60;;;22.60;70.40;;;;;;6263440;28;84387;-93
2024/01/04 06:12:26;;;;;;;56.03;46.80;;;22.60;70.50;;;;;;6263222;28;84184;-94
2024/01/04 06:15:28;;;;;;;55.42;47.10;;;22.60;70.50;;;;;;6262615;28;84915;-93
2024/01/04 06:18:30;;;;;;;52.13;44.50;;;22.60;70.50;;;;;;6263491;28;83950;-94
2024/01/04 06:21:34;;;;;;;51.28;42.55;;;22.60;70.60;;;;;;6262873;28;82988;-94
2024/01/04 06:24:36;;;;;;;50.00;42.17;;;22.60;70.70;;;;;;6263421;28;83295;-94
2024/01/04 06:27:38;;;;;;;48.03;40.53;;;22.60;70.70;;;;;;6263400;28;83271;-94
2024/01/04 06:30:40;;;;;;;48.83;40.80;;;22.60;70.70;;;;;;6264405;28;84457;-93
2024/01/04 06:33:42;;;;;;;46.80;40.00;;;22.60;70.70;;;;;;6263728;28;84377;-93
2024/01/04 06:36:47;;;;;;;45.33;38.55;;;22.60;70.80;;;;;;6262133;28;82563;-94
2024/01/04 06:39:50;;;;;;;45.85;37.60;;;22.60;70.80;;;;;;6262965;28;83895;-93
2024/01/04 06:42:55;;;;;;;44.15;37.17;;;22.60;70.70;;;;;;6262932;27;84247;-94
2024/01/04 06:45:59;;;;;;;45.58;37.00;;;22.60;70.60;;;;;;6243057;28;84032;-94
2024/01/04 06:49:01;;;;;;;41.00;35.42;;;22.60;70.60;;;;;;6262885;28;83964;-93
2024/01/04 06:52:05;;;;;;;39.53;34.35;;;22.60;70.60;;;;;;6262939;28;84256;-93
2024/01/04 06:55:10;;;;;;;41.17;34.88;;;22.60;70.60;;;;;;6262691;28;84062;-94
2024/01/04 06:58:12;;;;;;;39.50;33.47;;;22.60;70.60;;;;;;6262641;28;84387;-94
2024/01/04 07:01:14;;;;;;;39.25;33.17;;;22.60;70.60;;;;;;6262477;28;83927;-94
2024/01/04 07:04:16;;;;;;;36.60;31.55;;;22.60;70.60;;;;;;6262235;28;86082;-93
2024/01/04 07:07:19;;;;;;;35.03;30.83;;;22.60;70.70;;;;;;6262135;28;82820;-94
2024/01/04 07:10:21;;;;;;;35.95;31.23;;;22.60;70.60;;;;;;6262593;28;83919;-93
2024/01/04 07:13:25;;;;;;;36.13;30.90;;;22.60;70.70;;;;;;6262091;28;84293;-94
2024/01/04 07:16:27;;;;;;;34.60;29.10;;;22.60;70.70;;;;;;6258141;28;83375;-94
2024/01/04 07:19:29;;;;;;;31.65;27.02;;;22.60;70.80;;;;;;6262257;28;83903;-93
2024/01/04 07:22:33;;;;;;;31.55;27.75;;;22.60;70.80;;;;;;6262082;28;83981;-93
2024/01/04 07:25:36;;;;;;;31.33;27.27;;;22.60;70.80;;;;;;6262251;28;84079;-93
2024/01/04 07:28:38;;;;;;;29.50;26.15;;;22.60;71.90;;;;;;6265081;27;84147;-93
2024/01/04 07:31:40;;;;;;;29.90;26.17;;;22.60;71.00;;;;;;6266491;28;83877;-93
2024/01/04 07:34:42;;;;;;;28.58;24.67;;;22.60;71.10;;;;;;6266200;28;83953;-93
2024/01/04 07:37:46;;;;;;;27.60;24.52;;;22.60;71.10;;;;;;6266802;28;82675;-92
2024/01/04 07:40:48;;;;;;;27.08;23.88;;;22.60;71.00;;;;;;6266049;28;84163;-93
2024/01/04 07:43:50;;;;;;;26.05;22.20;;;22.60;71.00;;;;;;6266190;28;84403;-93
2024/01/04 07:46:53;;;;;;;24.98;22.15;;;22.60;70.80;;;;;;6265771;28;85141;-93
2024/01/04 07:49:55;;;;;;;24.85;22.15;;;22.60;70.80;;;;;;6265929;28;83953;-92
2024/01/04 07:52:58;;;;;;;23.75;21.25;;;22.60;70.80;;;;;;6266117;28;83966;-93
2024/01/04 07:56:00;;;;;;;23.83;21.13;;;22.70;70.80;;;;;;6266263;28;84347;-93
2024/01/04 07:59:02;;;;;;;23.23;20.73;;;22.60;70.80;;;;;;6265914;28;84217;-92
2024/01/04 08:02:05;;;;;;;23.23;20.80;;;22.70;70.90;;;;;;6265802;28;83986;-93
2024/01/04 08:05:07;;;;;;;22.52;20.13;;;22.60;70.80;;;;;;6261768;28;83092;-93
2024/01/04 08:08:11;;;;;;;21.70;18.98;;;22.60;70.90;;;;;;6265970;28;83228;-93
2024/01/04 08:11:13;;;;;;;20.73;18.42;;;22.70;71.00;;;;;;6265659;28;83925;-93
2024/01/04 08:14:15;;;;;;;21.73;19.08;;;22.70;71.00;;;;;;6265615;28;84318;-93
2024/01/04 08:17:17;;;;;;;20.80;18.27;;;22.60;71.00;;;;;;6265630;28;84908;-93
2024/01/04 08:20:20;;;;;;;19.80;17.48;;;22.60;71.00;;;;;;6265742;28;83008;-93
2024/01/04 08:23:23;;;;;;;19.90;17.40;;;22.60;71.00;;;;;;6265554;28;84544;-93
2024/01/04 08:26:27;;;;;;;19.27;17.05;;;22.70;71.10;;;;;;6265191;28;84093;-92
2024/01/04 08:29:29;;;;;;;18.65;16.67;;;22.60;71.10;;;;;;6265087;28;83988;-93
2024/01/04 08:32:31;;;;;;;18.73;16.20;;;22.70;71.30;;;;;;6265707;28;85198;-93
2024/01/04 08:35:33;;;;;;;17.60;15.68;;;22.60;71.30;;;;;;6262332;28;82938;-92
2024/01/04 08:38:37;;;;;;;17.90;15.60;;;22.60;71.30;;;;;;6265104;27;82700;-93
2024/01/04 08:41:39;;;;;;;17.38;15.27;;;22.70;71.40;;;;;;6265142;28;84454;-93
2024/01/04 08:44:41;;;;;;;16.85;14.98;;;22.70;71.40;;;;;;6265448;28;85349;-93
2024/01/04 08:47:43;;;;;;;16.45;14.63;;;22.70;71.30;;;;;;6264649;28;84038;-93
2024/01/04 08:50:45;;;;;;;15.98;14.27;;;22.70;71.20;;;;;;6265018;28;84296;-93
2024/01/04 08:53:50;;;;;;;15.18;13.57;;;22.70;71.20;;;;;;6264414;28;84021;-93
2024/01/04 08:56:52;;;;;;;15.30;13.60;;;22.70;71.20;;;;;;6265190;28;84007;-93
2024/01/04 08:59:54;;;;;;;15.18;13.32;;;22.70;72.10;;;;;;6264527;28;83934;-92
2024/01/04 09:02:56;;;;;;;14.60;13.10;;;22.70;71.20;;;;;;6260728;28;82982;-93
2024/01/04 09:05:58;;;;;;;15.25;13.50;;;22.70;71.30;;;;;;6264601;28;83966;-93
2024/01/04 09:09:05;;;;;;;14.98;13.13;;;22.70;71.30;;;;;;6264977;28;83380;-93
2024/01/04 09:12:07;;;;;;;14.20;12.50;;;22.70;71.30;;;;;;6264579;28;84414;-93
2024/01/04 09:15:09;;;;;;;13.43;12.02;;;22.70;71.40;;;;;;6264372;28;83998;-94
2024/01/04 09:18:11;;;;;;;13.32;11.93;;;22.70;71.40;;;;;;6264001;28;85229;-95
2024/01/04 09:21:13;;;;;;;13.85;12.15;;;22.70;71.40;;;;;;6264465;28;83863;-94
2024/01/04 09:24:18;;;;;;;13.23;11.82;;;22.60;71.30;;;;;;6264254;28;84369;-95
2024/01/04 09:27:21;;;;;;;12.43;11.02;;;22.70;71.40;;;;;;6260357;28;83019;-95
2024/01/04 09:30:23;;;;;;;12.20;11.00;;;22.70;71.40;;;;;;6263881;28;83972;-94
2024/01/04 09:33:26;;;;;;;12.30;10.68;;;22.70;71.50;;;;;;6263989;28;84312;-94
2024/01/04 09:36:28;;;;;;;12.02;10.70;;;22.70;71.50;;;;;;6263640;27;82943;-95
2024/01/04 09:39:31;;;;;;;12.10;10.80;;;22.70;71.50;;;;;;6260258;28;82589;-95
2024/01/04 09:42:38;;;;;;;12.02;10.77;;;22.70;71.50;;;;;;6264053;28;84287;-95
2024/01/04 09:45:40;;;;;;;11.43;10.07;;;22.70;71.60;;;;;;6260035;28;82590;-94
2024/01/04 09:48:45;;;;;;;10.75;9.65;;;22.70;71.60;;;;;;6263402;28;85144;-95
2024/01/04 09:51:47;;;;;;;10.00;9.02;;;22.70;71.50;;;;;;6263997;27;83291;-95
2024/01/04 09:54:53;;;;;;;10.10;9.10;;;22.70;71.50;;;;;;6264538;28;83757;-94
2024/01/04 09:57:56;;;;;;;10.50;9.40;;;22.70;71.50;;;;;;6264821;28;82983;-95
2024/01/04 10:01:00;;;;;;;10.40;9.27;;;22.70;71.50;;;;;;6264744;28;83969;-95
2024/01/04 10:04:10;;;;;;;9.65;8.65;;;22.70;71.50;;;;;;6264396;27;84473;-93
2024/01/04 10:07:17;;;;;;;10.05;8.85;;;22.70;71.50;;;;;;6264456;28;84504;-93
2024/01/04 10:10:24;;;;;;;10.20;9.10;;;22.70;71.50;;;;;;6265068;28;83822;-93
2024/01/04 10:13:26;;;;;;;9.43;8.43;;;22.70;72.50;;;;;;6264215;28;83287;-93
2024/01/04 10:16:29;;;;;;;10.75;9.30;;;22.70;71.60;;;;;;6264005;28;83816;-93
2024/01/04 10:19:33;;;;;;;9.68;8.68;;;22.70;71.60;;;;;;6263762;28;83809;-93
2024/01/04 10:22:35;;;;;;;9.35;8.25;;;22.70;71.60;;;;;;6264335;28;83909;-93
2024/01/04 10:25:39;;;;;;;9.05;8.15;;;22.70;71.70;;;;;;6264665;28;83938;-93
2024/01/04 10:28:41;;;;;;;8.77;7.88;;;22.70;71.60;;;;;;6264009;28;84360;-93
2024/01/04 10:31:44;;;;;;;8.00;7.20;;;22.70;71.60;;;;;;6264314;28;84399;-93
2024/01/04 10:34:46;;;;;;;8.50;7.60;;;22.70;71.60;;;;;;6259882;28;82990;-92
2024/01/04 10:37:58;;;;;;;8.18;7.38;;;22.70;71.70;;;;;;6264629;28;83994;-93
2024/01/04 10:41:01;;;;;;;8.13;7.32;;;22.70;71.80;;;;;;6264374;28;83615;-93
2024/01/04 10:44:05;;;;;;;7.70;7.00;;;22.70;71.80;;;;;;6263819;28;84100;-92
2024/01/04 10:47:09;;;;;;;7.82;7.07;;;22.70;71.80;;;;;;6263842;28;84507;-93
2024/01/04 10:50:12;;;;;;;7.25;6.50;;;22.70;71.80;;;;;;6263342;28;83838;-92
2024/01/04 10:53:15;;;;;;;9.07;7.18;;;22.70;71.80;;;;;;6263746;28;84026;-93
2024/01/04 10:56:19;;;;;;;8.23;7.00;;;22.70;71.60;;;;;;6263727;28;84471;-93
2024/01/04 10:59:22;;;;;;;7.45;6.60;;;22.70;71.60;;;;;;6264086;28;84093;-93
2024/01/04 11:02:27;;;;;;;7.40;6.60;;;22.70;71.60;;;;;;6266585;27;84054;-93
2024/01/04 11:05:29;;;;;;;8.02;7.22;;;22.70;71.60;;;;;;6268491;28;84000;-93
2024/01/04 11:08:34;;;;;;;7.20;6.50;;;22.70;71.60;;;;;;6268014;28;83988;-93
2024/01/04 11:11:39;;;;;;;7.03;6.32;;;22.80;71.70;;;;;;6268306;28;83347;-93
2024/01/04 11:14:42;;;;;;;6.90;6.30;;;22.80;71.70;;;;;;6268256;28;83274;-93
2024/01/04 11:18:09;;;;;;;6.75;6.07;;;22.70;71.60;;;;;;6268367;28;84302;-93
2024/01/04 11:21:44;;;;;;;6.65;5.95;;;22.80;71.80;;;;;;6267313;28;85232;-93
2024/01/04 11:24:59;;;;;;;6.82;6.13;;;22.70;71.80;;;;;;6267826;28;83990;-92
2024/01/04 11:28:07;;;;;;;7.40;6.40;;;22.80;71.80;;;;;;6267457;28;83903;-93
2024/01/04 11:31:10;;;;;;;7.10;5.90;;;22.70;71.70;;;;;;6267720;28;83285;-93
2024/01/04 11:34:14;;;;;;;7.13;6.10;;;22.70;71.80;;;;;;6267572;28;84018;-92
2024/01/04 11:37:18;;;;;;;6.45;5.75;;;22.80;71.80;;;;;;6267517;28;84128;-93
2024/01/04 11:40:27;;;;;;;6.72;6.00;;;22.80;71.80;;;;;;6267706;28;83967;-93
2024/01/04 11:43:37;;;;;;;6.57;5.88;;;22.80;71.80;;;;;;6268085;28;83425;-92
2024/01/04 11:46:43;;;;;;;6.63;6.03;;;22.80;71.90;;;;;;6267429;28;83639;-92
2024/01/04 11:49:48;;;;;;;6.43;5.80;;;22.80;72.00;;;;;;6267115;28;84293;-93
2024/01/04 11:52:51;;;;;;;6.47;5.82;;;22.70;71.90;;;;;;6266686;28;84116;-92
2024/01/04 11:56:03;;;;;;;6.20;5.60;;;22.80;72.00;;;;;;6267376;28;84007;-93
2024/01/04 11:59:11;;;;;;;6.05;5.45;;;22.80;72.00;;;;;;6267423;28;83345;-93
2024/01/04 12:02:19;;;;;;;5.85;5.25;;;22.80;71.90;;;;;;6267087;28;84061;-93
2024/01/04 12:05:22;;;;;;;5.95;5.35;;;22.80;71.80;;;;;;6263172;28;83233;-93
2024/01/04 12:08:24;;;;;;;6.10;5.43;;;22.80;71.80;;;;;;6266729;28;84460;-93
2024/01/04 12:11:26;;;;;;;5.35;4.85;;;22.80;71.80;;;;;;6266525;27;84255;-93
2024/01/04 12:14:30;;;;;;;5.43;4.93;;;22.80;71.80;;;;;;6266838;27;83171;-93
2024/01/04 12:17:32;;;;;;;6.15;5.32;;;22.80;71.80;;;;;;6266648;28;84444;-93
2024/01/04 12:20:37;;;;;;;5.50;4.97;;;22.80;71.80;;;;;;6266756;28;84452;-93
2024/01/04 12:23:40;;;;;;;5.30;4.78;;;22.80;71.80;;;;;;6265852;28;85080;-92
2024/01/04 12:26:43;;;;;;;5.30;4.80;;;22.80;72.00;;;;;;6266651;28;83976;-93
2024/01/04 12:29:47;;;;;;;6.18;5.28;;;22.80;71.90;;;;;;6266340;28;84053;-93
2024/01/04 12:32:51;;;;;;;5.40;4.88;;;22.80;71.90;;;;;;6266779;28;83932;-93
2024/01/04 12:35:58;;;;;;;5.13;4.63;;;22.80;71.90;;;;;;6266183;28;83976;-93
2024/01/04 12:39:09;;;;;;;4.97;4.47;;;22.80;72.00;;;;;;6266359;28;84363;-93
2024/01/04 12:42:13;;;;;;;5.45;4.60;;;22.90;72.00;;;;;;6266273;28;84425;-94
2024/01/04 12:45:17;;;;;;;4.90;4.38;;;22.80;71.90;;;;;;6266804;28;83912;-93
2024/01/04 12:48:21;;;;;;;5.00;4.20;;;22.90;72.00;;;;;;6266402;28;84338;-94
2024/01/04 12:51:30;;;;;;;4.68;4.22;;;22.90;72.00;;;;;;6266285;28;84155;-93
2024/01/04 12:54:32;;;;;;;4.70;4.25;;;22.90;72.00;;;;;;6265366;27;84956;-93
2024/01/04 12:57:36;;;;;;;4.20;3.80;;;22.90;72.00;;;;;;6266248;28;83999;-93
2024/01/04 13:00:48;;;;;;;5.63;4.57;;;22.90;72.00;;;;;;6265883;28;84298;-93
2024/01/04 13:03:50;;;;;;;4.47;3.97;;;23.00;71.90;;;;;;6266161;28;84033;-93
2024/01/04 13:06:53;;;;;;;4.40;4.00;;;22.90;71.80;;;;;;6265779;28;84036;-93
2024/01/04 13:09:55;;;;;;;4.80;4.00;;;22.90;71.80;;;;;;6265562;28;82820;-93
2024/01/04 13:12:59;;;;;;;4.78;4.20;;;23.00;71.80;;;;;;6265383;27;84389;-93
2024/01/04 13:16:02;;;;;;;4.72;3.78;;;22.90;71.60;;;;;;6262538;28;82309;-94
2024/01/04 13:19:04;;;;;;;4.40;4.00;;;23.00;71.60;;;;;;6265611;28;84387;-94
2024/01/04 13:22:07;;;;;;;4.05;3.65;;;22.90;71.60;;;;;;6265686;28;84391;-94
2024/01/04 13:25:09;;;;;;;3.80;3.50;;;22.90;71.60;;;;;;6263713;27;84917;-93
2024/01/04 13:28:11;;;;;;;6.00;4.20;;;22.90;71.60;;;;;;6265379;28;82897;-94
2024/01/04 13:31:14;;;;;;;3.75;3.42;;;22.90;71.60;;;;;;6228377;28;82949;-94
2024/01/04 13:34:16;;;;;;;4.15;3.55;;;22.90;71.50;;;;;;6264806;28;84401;-94
2024/01/04 13:37:19;;;;;;;4.00;3.53;;;23.00;71.50;;;;;;6264577;28;84061;-94
2024/01/04 13:40:21;;;;;;;4.25;3.65;;;22.90;71.50;;;;;;6265262;28;82882;-94
2024/01/04 13:43:24;;;;;;;4.15;3.15;;;22.90;71.50;;;;;;6265324;28;84108;-94
2024/01/04 13:46:29;;;;;;;3.97;3.33;;;23.00;71.50;;;;;;6265977;28;82513;-94
2024/01/04 13:49:31;;;;;;;3.70;3.30;;;23.00;71.50;;;;;;6265082;28;83987;-94
2024/01/04 13:52:34;;;;;;;3.45;3.05;;;22.90;71.50;;;;;;6264721;28;84443;-94
2024/01/04 13:55:36;;;;;;;3.67;3.28;;;22.90;71.60;;;;;;6264458;28;84710;-94
2024/01/04 13:58:38;;;;;;;3.92;3.10;;;22.90;71.60;;;;;;6264934;28;84305;-94
2024/01/04 14:01:42;;;;;;;3.85;3.35;;;22.90;71.60;;;;;;6264938;28;84014;-93
2024/01/04 14:04:44;;;;;;;3.45;3.15;;;22.90;71.50;;;;;;6264573;28;84076;-94
2024/01/04 14:07:46;;;;;;;3.47;2.90;;;22.90;71.50;;;;;;6264557;28;84037;-93
2024/01/04 14:10:48;;;;;;;3.10;2.80;;;22.90;71.30;;;;;;6264647;28;83965;-94
2024/01/04 14:13:51;;;;;;;4.30;2.85;;;22.90;71.20;;;;;;6264669;28;84324;-93
2024/01/04 14:16:54;;;;;;;3.75;2.90;;;22.90;71.20;;;;;;6265048;28;83726;-93
2024/01/04 14:20:07;;;;;;;2.97;2.67;;;22.90;71.30;;;;;;6264230;28;85409;-94
2024/01/04 14:23:10;;;;;;;3.33;2.70;;;22.90;71.30;;;;;;6264531;28;84423;-94
2024/01/04 14:26:13;;;;;;;3.38;2.80;;;22.90;71.30;;;;;;6263473;28;85543;-94
2024/01/04 14:29:15;;;;;;;2.78;2.47;;;22.90;71.30;;;;;;6264614;28;85788;-93
2024/01/04 14:32:19;;;;;;;2.72;2.42;;;22.90;71.40;;;;;;6264220;28;83864;-94
2024/01/04 14:35:23;;;;;;;3.83;2.92;;;22.90;71.50;;;;;;6263567;28;84427;-93
2024/01/04 14:38:26;;;;;;;3.33;2.58;;;22.90;71.50;;;;;;6264094;28;84157;-93
2024/01/04 14:41:29;;;;;;;3.95;2.80;;;22.90;71.50;;;;;;6264310;28;84568;-93
2024/01/04 14:44:31;;;;;;;3.42;2.78;;;23.00;71.60;;;;;;6264001;28;84501;-93
2024/01/04 14:47:36;;;;;;;2.97;2.67;;;23.00;71.70;;;;;;6264486;28;82964;-94
2024/01/04 14:50:38;;;;;;;2.97;2.65;;;23.00;71.80;;;;;;6264089;28;84458;-94
2024/01/04 14:53:42;;;;;;;3.22;2.50;;;22.90;71.80;;;;;;6264284;28;84286;-93
2024/01/04 14:56:45;;;;;;;3.90;2.65;;;22.90;71.80;;;;;;6263351;28;85051;-94
2024/01/04 14:59:47;;;;;;;2.83;2.25;;;22.90;71.90;;;;;;6264059;28;82885;-93
2024/01/04 15:02:51;;;;;;;2.47;2.17;;;22.90;71.90;;;;;;6263903;28;84498;-93
2024/01/04 15:05:53;;;;;;;3.08;2.40;;;22.90;71.90;;;;;;6263714;28;84456;-94
2024/01/04 15:08:55;;;;;;;2.60;1.80;;;22.90;71.80;;;;;;6259474;28;82154;-94
2024/01/04 15:11:57;;;;;;;3.03;1.70;;;22.90;66.70;;;;;;6263938;28;83971;-93
2024/01/04 15:15:01;;;;;;;2.53;1.60;;;22.80;64.40;;;;;;6263594;28;84067;-93
2024/01/04 15:18:06;;;;;;;3.17;1.42;;;22.70;64.10;;;;;;6264262;28;83426;-93
2024/01/04 15:21:08;;;;;;;2.20;1.50;;;22.60;64.40;;;;;;6263531;28;84082;-92
2024/01/04 15:24:10;;;;;;;2.03;1.30;;;22.60;64.90;;;;;;6263336;28;84299;-92
2024/01/04 15:27:12;;;;;;;3.45;1.70;;;22.60;65.60;;;;;;6258997;28;82767;-93
2024/01/04 15:30:15;;;;;;;1.85;1.50;;;22.60;66.20;;;;;;6263356;28;82883;-92
2024/01/04 15:33:21;;;;;;;1.98;1.58;;;22.60;66.40;;;;;;6263261;28;84096;-92
2024/01/04 15:36:23;;;;;;;3.33;1.50;;;22.60;66.70;;;;;;6263269;28;82752;-93
2024/01/04 15:39:26;;;;;;;2.55;1.67;;;22.70;67.10;;;;;;6259009;28;83293;-92
2024/01/04 15:42:28;;;;;;;2.78;1.60;;;22.70;67.40;;;;;;6263543;28;83954;-93
2024/01/04 15:45:30;;;;;;;2.42;1.85;;;22.70;67.70;;;;;;6263141;28;82858;-93
2024/01/04 15:48:34;;;;;;;2.58;1.70;;;22.70;68.00;;;;;;6264948;27;83247;-93
2024/01/04 15:51:37;;;;;;;2.55;1.52;;;22.70;68.40;;;;;;6267210;28;84294;-92
2024/01/04 15:54:38;;;;;;;3.38;1.50;;;22.70;68.60;;;;;;6267962;28;83145;-93
2024/01/04 15:57:41;;;;;;;2.40;1.70;;;22.70;68.80;;;;;;6266710;28;84941;-93
2024/01/04 16:00:43;;;;;;;1.60;1.40;;;22.70;68.80;;;;;;6267186;28;84269;-93
2024/01/04 16:03:47;;;;;;;1.90;1.48;;;22.70;68.90;;;;;;6267297;28;84593;-92
2024/01/04 16:06:49;;;;;;;2.08;1.52;;;22.80;69.00;;;;;;6266854;27;84005;-92
2024/01/04 16:09:51;;;;;;;2.53;1.70;;;22.80;68.90;;;;;;6267043;28;83967;-92
2024/01/04 16:12:53;;;;;;;2.75;1.77;;;22.80;68.90;;;;;;6266752;28;84013;-92
2024/01/04 16:15:55;;;;;;;2.42;1.60;;;22.80;69.00;;;;;;6267159;28;83949;-93
2024/01/04 16:18:59;;;;;;;1.83;1.42;;;22.80;69.10;;;;;;6263365;28;82582;-93
2024/01/04 16:22:01;;;;;;;1.70;1.42;;;22.80;69.20;;;;;;6266899;28;84046;-93
2024/01/04 16:25:05;;;;;;;2.65;1.70;;;22.80;69.30;;;;;;6248046;27;82710;-93
2024/01/04 16:28:07;;;;;;;1.70;1.50;;;22.80;69.30;;;;;;6265836;28;85327;-93
2024/01/04 16:31:10;;;;;;;1.83;1.48;;;22.80;69.40;;;;;;6268657;28;84071;-92
2024/01/04 16:34:13;;;;;;;1.98;1.52;;;22.80;69.40;;;;;;6262650;28;82302;-92
2024/01/04 16:37:16;;;;;;;1.95;1.63;;;22.80;69.40;;;;;;6265925;27;83986;-92
2024/01/04 16:40:18;;;;;;;2.25;1.60;;;22.80;69.40;;;;;;6266285;28;83926;-93
2024/01/04 16:43:21;;;;;;;2.45;1.83;;;22.80;69.50;;;;;;6266255;28;83965;-93
2024/01/04 16:46:23;;;;;;;2.08;1.60;;;22.80;69.60;;;;;;6265976;28;84123;-93
2024/01/04 16:49:26;;;;;;;2.33;1.90;;;22.80;69.80;;;;;;6266864;28;83215;-93
2024/01/04 16:52:29;;;;;;;2.72;2.08;;;22.80;69.80;;;;;;6266074;28;84010;-93
2024/01/04 16:55:31;;;;;;;2.47;2.25;;;22.80;70.00;;;;;;6266007;28;84535;-92
2024/01/04 16:58:34;;;;;;;2.22;2.03;;;22.80;70.00;;;;;;6265664;27;85031;-92
2024/01/04 17:01:37;;;;;;;2.53;2.10;;;22.80;70.10;;;;;;6262245;28;83043;-92
2024/01/04 17:04:40;;;;;;;2.70;2.20;;;22.90;71.10;;;;;;6266097;28;83583;-93
2024/01/04 17:07:43;;;;;;;2.97;2.55;;;22.80;70.10;;;;;;6265811;28;83010;-93
2024/01/04 17:10:46;;;;;;;3.00;2.70;;;22.80;70.10;;;;;;6266010;28;84930;-92
2024/01/04 17:13:48;;;;;;;2.83;2.53;;;22.80;70.10;;;;;;6265824;28;84219;-93
2024/01/04 17:16:51;;;;;;;3.08;2.78;;;22.80;70.10;;;;;;6265978;28;83985;-92
2024/01/04 17:19:55;;;;;;;3.40;2.90;;;22.80;70.10;;;;;;6266040;28;83307;-93
2024/01/04 17:22:57;;;;;;;3.70;3.40;;;22.80;70.10;;;;;;6265530;28;83170;-92
2024/01/04 17:25:59;;;;;;;3.53;3.22;;;22.80;70.20;;;;;;6265844;28;83382;-92
2024/01/04 17:29:01;;;;;;;3.50;3.17;;;22.80;70.20;;;;;;6264911;28;85026;-93